Time;durP1;ratioP1;P1;durP2;ratioP2;P2;SDS_P1;SDS_P2;PMS_P1;PMS_P2;Temp;Humidity;BMP_temperature;BMP_pressure;BME280_temperature;BME280_humidity;BME280_pressure;Samples;Min_cycle;Max_cycle;Signal;HPM_P1;HPM_P2
2022/07/03 00:01:50;;;;;;;2.83;1.33;;;20.30;93.10;;;;;;5024890;28;20045;-34
2022/07/03 00:04:18;;;;;;;2.75;1.35;;;20.20;93.30;;;;;;5017757;28;20481;-34
2022/07/03 00:06:43;;;;;;;1.98;1.30;;;20.20;93.40;;;;;;5020578;28;20025;-34
2022/07/03 00:09:09;;;;;;;3.05;1.80;;;20.20;93.60;;;;;;5020543;28;20022;-35
2022/07/03 00:11:34;;;;;;;2.25;1.60;;;20.10;93.60;;;;;;5018722;28;20025;-35
2022/07/03 00:14:00;;;;;;;1.48;1.17;;;20.10;93.80;;;;;;5022877;28;20030;-34
2022/07/03 00:16:26;;;;;;;1.17;1.02;;;20.10;93.70;;;;;;5016898;28;20382;-35
2022/07/03 00:18:51;;;;;;;1.65;1.20;;;20.00;93.70;;;;;;5024590;28;20498;-35
2022/07/03 00:21:23;;;;;;;1.83;1.20;;;20.00;93.80;;;;;;5015039;28;20037;-34
2022/07/03 00:23:56;;;;;;;1.90;1.48;;;19.90;93.80;;;;;;5025046;28;20071;-35
2022/07/03 00:26:24;;;;;;;1.50;1.40;;;19.90;93.90;;;;;;5013967;28;20032;-36
2022/07/03 00:28:51;;;;;;;1.10;1.00;;;19.90;94.00;;;;;;5025441;28;20028;-34
2022/07/03 00:31:17;;;;;;;1.40;1.10;;;19.90;94.10;;;;;;5014054;28;20120;-34
2022/07/03 00:33:43;;;;;;;1.70;1.40;;;19.90;94.10;;;;;;5025768;28;20116;-34
2022/07/03 00:36:11;;;;;;;2.13;1.52;;;19.80;94.10;;;;;;5013374;28;20812;-35
2022/07/03 00:38:37;;;;;;;2.05;1.48;;;19.80;94.00;;;;;;5024702;28;20117;-35
2022/07/03 00:41:03;;;;;;;2.72;1.50;;;19.80;94.10;;;;;;5013168;28;20124;-35
2022/07/03 00:43:29;;;;;;;1.63;1.45;;;19.70;94.20;;;;;;5025587;28;20021;-35
2022/07/03 00:46:10;;;;;;;2.05;1.55;;;19.70;94.40;;;;;;5015547;28;20033;-35
2022/07/03 00:48:38;;;;;;;1.92;1.40;;;19.60;94.50;;;;;;5025616;28;20079;-35
2022/07/03 00:51:06;;;;;;;1.70;1.50;;;19.60;94.60;;;;;;5015072;28;20417;-36
2022/07/03 00:53:35;;;;;;;2.47;1.30;;;19.60;94.80;;;;;;5022261;28;20120;-36
2022/07/03 00:56:04;;;;;;;2.70;1.90;;;19.60;94.90;;;;;;5018001;28;20021;-34
2022/07/03 00:58:33;;;;;;;2.67;1.75;;;19.50;95.00;;;;;;5021320;28;20037;-34
2022/07/03 01:00:59;;;;;;;2.88;1.55;;;19.50;95.10;;;;;;5018185;28;20042;-34
2022/07/03 01:03:27;;;;;;;2.17;1.73;;;19.40;95.10;;;;;;5018781;28;20021;-34
2022/07/03 01:05:55;;;;;;;4.40;1.60;;;19.40;95.30;;;;;;5021755;28;20048;-36
2022/07/03 01:08:48;;;;;;;5.07;1.95;;;19.30;95.40;;;;;;5017415;28;20084;-32
2022/07/03 01:11:23;;;;;;;2.75;1.60;;;19.30;95.60;;;;;;5020020;28;20521;-35
2022/07/03 01:14:27;;;;;;;3.08;1.70;;;19.20;95.50;;;;;;5019979;28;20033;-34
2022/07/03 01:17:03;;;;;;;6.18;1.60;;;19.20;95.50;;;;;;5016007;28;20030;-34
2022/07/03 01:19:41;;;;;;;1.75;1.52;;;19.10;95.60;;;;;;5023638;28;20032;-35
2022/07/03 01:22:44;;;;;;;3.17;1.63;;;19.20;95.70;;;;;;5014768;28;20045;-35
2022/07/03 01:25:24;;;;;;;3.42;1.73;;;19.10;95.70;;;;;;5006324;28;20030;-34
2022/07/03 01:28:11;;;;;;;2.63;1.70;;;19.10;95.80;;;;;;5023624;28;20366;-34
2022/07/03 01:30:48;;;;;;;3.88;2.03;;;19.10;96.00;;;;;;5025246;28;20171;-33
2022/07/03 01:33:24;;;;;;;5.00;2.90;;;19.00;96.10;;;;;;5024273;28;20076;-33
2022/07/03 01:36:09;;;;;;;6.13;3.17;;;18.80;96.60;;;;;;5025338;28;20068;-34
2022/07/03 01:38:42;;;;;;;5.55;3.20;;;18.70;96.70;;;;;;5016032;28;20029;-37
2022/07/03 01:41:09;;;;;;;5.70;3.40;;;18.60;96.90;;;;;;5005914;28;20460;-34
2022/07/03 01:43:48;;;;;;;7.88;4.25;;;18.50;97.20;;;;;;5024931;28;20017;-34
2022/07/03 01:46:17;;;;;;;5.57;4.13;;;18.40;97.60;;;;;;5029874;28;20025;-34
2022/07/03 01:48:44;;;;;;;6.03;4.53;;;18.30;98.00;;;;;;5028586;28;20055;-34
2022/07/03 01:51:16;;;;;;;7.75;4.90;;;18.30;98.50;;;;;;5029334;28;20534;-34
2022/07/03 01:53:47;;;;;;;6.97;4.85;;;18.10;98.80;;;;;;5029147;28;20024;-35
2022/07/03 01:56:14;;;;;;;6.68;5.22;;;18.10;99.10;;;;;;5028238;28;20037;-34
2022/07/03 01:58:40;;;;;;;8.30;4.40;;;18.00;99.30;;;;;;5029129;28;20018;-34
2022/07/03 02:01:19;;;;;;;7.28;4.55;;;18.00;99.50;;;;;;5028912;28;20454;-33
2022/07/03 02:04:04;;;;;;;8.65;4.78;;;17.90;99.60;;;;;;5027418;28;20173;-35
2022/07/03 02:06:41;;;;;;;6.25;4.75;;;17.90;99.70;;;;;;5009055;28;20018;-33
2022/07/03 02:09:10;;;;;;;7.03;5.13;;;17.90;99.80;;;;;;5026631;28;20026;-36
2022/07/03 02:11:38;;;;;;;6.97;4.90;;;17.80;99.90;;;;;;5027517;28;20527;-34
2022/07/03 02:14:11;;;;;;;7.78;4.53;;;17.90;99.90;;;;;;5029096;28;20603;-33
2022/07/03 02:17:04;;;;;;;7.55;4.82;;;17.90;99.90;;;;;;5008305;28;20026;-34
2022/07/03 02:19:33;;;;;;;;;;;17.80;99.90;;;;;;5026615;28;20492;-34
2022/07/03 02:22:00;;;;;;;5.30;3.47;;;17.80;99.90;;;;;;5028822;28;20003;-34
2022/07/03 02:24:27;;;;;;;5.88;4.47;;;17.80;99.90;;;;;;5026070;28;20021;-34
2022/07/03 02:27:09;;;;;;;9.23;4.55;;;17.80;99.90;;;;;;5022407;28;20105;-37
2022/07/03 02:29:46;;;;;;;6.82;4.80;;;17.90;99.90;;;;;;5023898;28;20041;-34
2022/07/03 02:32:17;;;;;;;5.18;3.88;;;17.80;99.90;;;;;;5008114;28;20025;-36
2022/07/03 02:34:47;;;;;;;7.35;4.00;;;17.80;99.90;;;;;;5023486;28;20041;-34
2022/07/03 02:37:18;;;;;;;5.60;3.97;;;17.80;99.90;;;;;;5027730;28;20037;-34
2022/07/03 02:39:46;;;;;;;5.65;4.30;;;17.90;99.90;;;;;;5027060;28;20037;-34
2022/07/03 02:42:47;;;;;;;6.60;3.78;;;17.80;99.90;;;;;;5028411;28;20509;-34
2022/07/03 02:45:13;;;;;;;5.07;3.42;;;17.80;99.90;;;;;;5027061;28;20033;-35
2022/07/03 02:48:20;;;;;;;3.80;3.40;;;17.80;99.90;;;;;;5027771;28;20041;-35
2022/07/03 02:50:50;;;;;;;5.65;3.50;;;17.80;99.90;;;;;;5028216;28;20095;-33
2022/07/03 02:53:30;;;;;;;3.08;2.78;;;17.90;99.90;;;;;;5026801;28;20025;-35
2022/07/03 02:56:07;;;;;;;4.03;3.63;;;17.90;99.90;;;;;;5027464;28;20084;-34
2022/07/03 02:58:53;;;;;;;6.30;4.68;;;17.90;99.90;;;;;;5027869;28;20152;-35
2022/07/03 03:01:33;;;;;;;8.65;4.78;;;17.90;99.90;;;;;;5027573;28;20056;-34
2022/07/03 03:04:28;;;;;;;6.28;4.53;;;17.80;99.90;;;;;;5027588;28;20207;-35
2022/07/03 03:07:01;;;;;;;7.13;4.32;;;17.80;99.90;;;;;;5027017;28;20392;-34
2022/07/03 03:09:39;;;;;;;4.15;3.45;;;17.70;99.90;;;;;;5026966;28;20400;-34
2022/07/03 03:12:05;;;;;;;5.55;3.83;;;17.70;99.90;;;;;;5028044;28;20499;-34
2022/07/03 03:14:42;;;;;;;5.45;3.50;;;17.70;99.90;;;;;;5026237;28;20132;-35
2022/07/03 03:17:13;;;;;;;3.45;2.83;;;17.70;99.90;;;;;;5027165;28;20024;-34
2022/07/03 03:19:46;;;;;;;3.65;3.33;;;17.70;99.90;;;;;;5027549;28;20131;-34
2022/07/03 03:22:37;;;;;;;5.70;4.60;;;17.70;99.90;;;;;;5026634;28;20460;-34
2022/07/03 03:25:03;;;;;;;10.02;5.22;;;17.70;99.90;;;;;;5027199;28;20021;-34
2022/07/03 03:27:29;;;;;;;6.38;4.50;;;17.70;99.90;;;;;;5026080;28;20379;-35
2022/07/03 03:29:55;;;;;;;3.40;3.10;;;17.60;99.90;;;;;;5027014;28;20412;-35
2022/07/03 03:32:21;;;;;;;3.92;3.38;;;17.60;99.90;;;;;;5027114;28;20025;-35
2022/07/03 03:34:47;;;;;;;6.60;4.15;;;17.70;99.90;;;;;;5026054;28;20030;-35
2022/07/03 03:37:13;;;;;;;4.75;3.67;;;17.70;99.90;;;;;;5026895;28;20029;-34
2022/07/03 03:39:39;;;;;;;3.95;3.40;;;17.70;99.90;;;;;;5026930;28;20114;-35
2022/07/03 03:42:05;;;;;;;4.18;3.15;;;17.70;99.90;;;;;;5026377;28;20466;-35
2022/07/03 03:44:30;;;;;;;3.45;2.80;;;17.70;99.90;;;;;;5027182;28;20022;-35
2022/07/03 03:46:56;;;;;;;4.13;2.85;;;17.70;99.90;;;;;;5026976;28;20053;-36
2022/07/03 03:49:22;;;;;;;4.28;3.00;;;17.70;99.90;;;;;;5026269;28;20025;-34
2022/07/03 03:51:48;;;;;;;3.17;2.60;;;17.80;99.90;;;;;;5026424;28;20048;-34
2022/07/03 03:54:14;;;;;;;2.78;2.45;;;17.70;99.90;;;;;;5026504;28;20044;-34
2022/07/03 03:56:39;;;;;;;3.95;2.90;;;17.80;99.90;;;;;;5026670;28;20109;-34
2022/07/03 03:59:05;;;;;;;3.00;2.70;;;17.80;99.90;;;;;;5027537;28;20072;-35
2022/07/03 04:01:30;;;;;;;5.03;2.50;;;17.80;99.90;;;;;;5025960;28;20055;-33
2022/07/03 04:03:59;;;;;;;4.65;2.60;;;17.80;99.90;;;;;;5026710;28;20101;-34
2022/07/03 04:06:25;;;;;;;2.67;2.47;;;17.80;99.90;;;;;;5025299;28;20040;-34
2022/07/03 04:08:51;;;;;;;4.93;2.30;;;17.80;99.90;;;;;;5026191;28;20029;-35
2022/07/03 04:11:16;;;;;;;2.97;2.50;;;17.80;99.90;;;;;;5025426;28;20477;-35
2022/07/03 04:13:42;;;;;;;4.65;2.00;;;17.90;99.90;;;;;;5026481;28;20128;-34
2022/07/03 04:16:08;;;;;;;2.75;2.28;;;17.80;99.90;;;;;;5026490;28;20029;-33
2022/07/03 04:18:33;;;;;;;4.25;3.10;;;17.90;99.90;;;;;;5024924;28;20017;-35
2022/07/03 04:21:00;;;;;;;2.70;2.40;;;17.90;99.90;;;;;;5026946;28;20492;-35
2022/07/03 04:23:25;;;;;;;3.20;2.72;;;17.80;99.90;;;;;;5024956;28;20040;-34
2022/07/03 04:25:51;;;;;;;4.80;2.78;;;17.80;99.90;;;;;;5026669;28;20025;-35
2022/07/03 04:28:16;;;;;;;3.38;2.42;;;17.80;99.90;;;;;;5025753;28;20693;-34
2022/07/03 04:30:42;;;;;;;3.78;2.35;;;17.80;99.90;;;;;;5025300;28;20087;-39
2022/07/03 04:33:07;;;;;;;2.88;2.55;;;17.80;99.90;;;;;;5026136;28;20473;-36
2022/07/03 04:35:33;;;;;;;3.72;3.00;;;17.70;99.90;;;;;;5025536;28;20029;-35
2022/07/03 04:37:58;;;;;;;2.90;2.60;;;17.70;99.90;;;;;;5025739;28;20478;-36
2022/07/03 04:40:24;;;;;;;3.30;2.80;;;17.70;99.90;;;;;;5025396;28;20034;-35
2022/07/03 04:42:49;;;;;;;3.67;2.97;;;17.60;99.90;;;;;;5025835;28;20038;-33
2022/07/03 04:45:15;;;;;;;3.10;2.80;;;17.60;99.90;;;;;;5024849;28;20447;-34
2022/07/03 04:47:40;;;;;;;4.32;3.42;;;17.60;99.90;;;;;;5026144;28;20559;-35
2022/07/03 04:50:06;;;;;;;4.20;3.03;;;17.50;99.90;;;;;;5026173;28;20499;-33
2022/07/03 04:52:32;;;;;;;4.57;2.88;;;17.50;99.90;;;;;;5024647;28;20418;-33
2022/07/03 04:54:57;;;;;;;3.80;3.10;;;17.50;99.90;;;;;;5026256;28;20161;-34
2022/07/03 04:57:23;;;;;;;3.40;3.00;;;17.50;99.90;;;;;;5026268;28;20202;-34
2022/07/03 04:59:49;;;;;;;4.10;3.47;;;17.50;99.90;;;;;;5024840;28;20037;-35
2022/07/03 05:02:14;;;;;;;4.05;3.10;;;17.50;99.90;;;;;;5026213;28;20052;-33
2022/07/03 05:04:40;;;;;;;3.35;2.80;;;17.50;99.90;;;;;;5025663;28;20160;-33
2022/07/03 05:07:05;;;;;;;3.92;2.70;;;17.60;99.90;;;;;;5025344;28;20025;-34
2022/07/03 05:09:31;;;;;;;3.03;2.72;;;17.70;99.90;;;;;;5024859;28;20476;-34
2022/07/03 05:11:56;;;;;;;2.92;2.63;;;17.90;99.90;;;;;;5025783;28;20821;-34
2022/07/03 05:14:22;;;;;;;3.78;2.65;;;18.00;99.90;;;;;;5024913;28;20026;-34
2022/07/03 05:16:47;;;;;;;3.55;2.40;;;18.10;99.90;;;;;;5025476;28;20021;-34
2022/07/03 05:19:13;;;;;;;2.35;2.08;;;18.20;99.90;;;;;;5027495;28;20029;-33
2022/07/03 05:21:38;;;;;;;3.08;2.28;;;18.20;99.90;;;;;;5028972;28;20079;-35
2022/07/03 05:24:04;;;;;;;3.15;2.05;;;18.30;99.90;;;;;;5029442;28;20029;-37
2022/07/03 05:26:30;;;;;;;2.80;1.90;;;18.30;99.90;;;;;;5028914;28;20042;-35
2022/07/03 05:28:55;;;;;;;3.83;2.40;;;18.30;99.90;;;;;;5029055;28;20500;-34
2022/07/03 05:31:21;;;;;;;2.50;2.30;;;18.30;99.90;;;;;;5029127;28;20033;-34
2022/07/03 05:33:46;;;;;;;3.03;2.30;;;18.30;99.90;;;;;;5028431;28;20017;-35
2022/07/03 05:36:12;;;;;;;2.40;2.20;;;18.40;99.90;;;;;;5029547;28;20041;-34
2022/07/03 05:41:22;;;;;;;3.13;2.08;;;18.40;99.90;;;;;;5028117;28;20067;-35
2022/07/03 05:43:47;;;;;;;2.67;2.05;;;18.40;99.90;;;;;;5029119;28;20033;-35
2022/07/03 05:46:13;;;;;;;2.30;2.00;;;18.50;99.90;;;;;;5028723;28;20033;-34
2022/07/03 05:48:39;;;;;;;1.90;1.70;;;18.50;99.90;;;;;;5028385;28;20030;-35
2022/07/03 05:51:04;;;;;;;2.38;2.10;;;18.50;99.90;;;;;;5029221;28;20430;-35
2022/07/03 05:53:30;;;;;;;2.88;1.90;;;18.50;99.90;;;;;;5028288;28;20087;-36
2022/07/03 05:55:56;;;;;;;2.30;1.70;;;18.50;99.90;;;;;;5028666;28;20021;-35
2022/07/03 05:58:21;;;;;;;2.03;1.92;;;18.50;99.90;;;;;;5029425;28;20034;-35
2022/07/03 06:00:47;;;;;;;2.80;1.55;;;18.40;99.90;;;;;;5028800;28;20092;-35
2022/07/03 06:03:13;;;;;;;2.78;1.80;;;18.40;99.90;;;;;;5029111;28;20022;-35
2022/07/03 06:05:38;;;;;;;2.92;2.20;;;18.50;99.90;;;;;;5028735;28;20051;-35
2022/07/03 06:08:05;;;;;;;1.92;1.40;;;18.50;99.90;;;;;;5028929;28;20079;-34
2022/07/03 06:10:31;;;;;;;2.47;1.50;;;18.50;99.90;;;;;;5027382;28;20408;-34
2022/07/03 06:12:57;;;;;;;2.13;1.35;;;18.60;99.90;;;;;;5029031;28;20480;-35
2022/07/03 06:15:23;;;;;;;1.67;1.40;;;18.70;99.90;;;;;;5028326;28;20025;-33
2022/07/03 06:17:48;;;;;;;1.98;1.33;;;18.70;99.90;;;;;;5027625;28;20033;-34
2022/07/03 06:20:14;;;;;;;3.67;1.20;;;18.80;99.90;;;;;;5028431;28;20049;-35
2022/07/03 06:22:40;;;;;;;2.60;1.20;;;18.90;99.90;;;;;;5028276;28;20029;-35
2022/07/03 06:25:06;;;;;;;1.90;1.05;;;19.00;99.90;;;;;;5028050;28;20032;-34
2022/07/03 06:27:32;;;;;;;2.35;1.20;;;19.10;99.90;;;;;;5028103;28;20113;-35
2022/07/03 06:29:58;;;;;;;2.67;1.00;;;19.10;99.90;;;;;;5027078;28;20014;-34
2022/07/03 06:32:23;;;;;;;1.42;1.00;;;19.10;99.90;;;;;;5027440;28;20462;-34
2022/07/03 06:34:49;;;;;;;1.15;0.90;;;19.10;99.90;;;;;;5028836;28;20033;-35
2022/07/03 06:37:15;;;;;;;2.17;1.00;;;19.00;99.90;;;;;;5026956;28;20112;-35
2022/07/03 06:39:40;;;;;;;2.15;1.00;;;19.10;99.90;;;;;;5027984;28;20030;-36
2022/07/03 06:42:06;;;;;;;1.23;0.70;;;19.10;99.90;;;;;;5028603;28;20042;-35
2022/07/03 06:44:32;;;;;;;3.00;1.02;;;19.10;99.90;;;;;;5026788;28;20017;-35
2022/07/03 06:46:58;;;;;;;2.13;0.98;;;19.10;99.90;;;;;;5027895;28;20099;-35
2022/07/03 06:49:23;;;;;;;1.55;0.90;;;19.10;99.90;;;;;;5027945;28;20049;-34
2022/07/03 06:51:52;;;;;;;2.78;0.82;;;19.10;99.90;;;;;;5026851;28;20034;-34
2022/07/03 06:54:18;;;;;;;2.15;0.90;;;19.20;99.90;;;;;;5027806;28;20029;-35
2022/07/03 06:56:43;;;;;;;2.53;0.63;;;19.20;99.90;;;;;;5027675;28;20029;-34
2022/07/03 06:59:09;;;;;;;1.20;0.80;;;19.20;99.90;;;;;;5027259;28;20115;-34
2022/07/03 07:01:35;;;;;;;1.17;0.70;;;19.20;99.90;;;;;;5026998;28;20400;-33
2022/07/03 07:04:01;;;;;;;2.70;0.95;;;19.30;99.90;;;;;;5027946;28;20036;-36
2022/07/03 07:06:27;;;;;;;1.83;0.80;;;19.30;99.90;;;;;;5026340;28;20376;-34
2022/07/03 07:08:52;;;;;;;3.25;0.90;;;19.30;99.90;;;;;;5027388;28;20511;-35
2022/07/03 07:11:18;;;;;;;2.40;0.75;;;19.30;99.90;;;;;;5027660;28;20369;-35
2022/07/03 07:13:43;;;;;;;1.35;0.70;;;19.30;99.90;;;;;;5016166;28;20788;-35
2022/07/03 07:16:09;;;;;;;2.33;0.68;;;19.40;99.90;;;;;;5009473;28;20037;-35
2022/07/03 07:18:34;;;;;;;1.67;0.70;;;19.40;99.90;;;;;;5013039;28;20017;-36
2022/07/03 07:21:00;;;;;;;1.95;0.65;;;19.40;99.90;;;;;;5012219;28;20038;-35
2022/07/03 07:23:26;;;;;;;2.40;0.75;;;19.50;99.90;;;;;;5010178;28;20525;-34
2022/07/03 07:25:52;;;;;;;1.10;0.70;;;19.50;99.90;;;;;;5015478;28;20029;-36
2022/07/03 07:28:17;;;;;;;1.38;0.63;;;19.50;99.90;;;;;;5006885;28;20021;-36
2022/07/03 07:30:43;;;;;;;3.05;0.77;;;19.60;99.90;;;;;;5017128;28;20381;-35
2022/07/03 07:33:09;;;;;;;2.03;0.73;;;19.70;99.90;;;;;;5007731;28;20457;-36
2022/07/03 07:35:35;;;;;;;1.33;0.80;;;19.70;99.90;;;;;;5016616;28;20034;-35
2022/07/03 07:38:01;;;;;;;1.70;0.50;;;19.80;99.90;;;;;;5006770;28;20029;-35
2022/07/03 07:40:27;;;;;;;1.42;0.63;;;19.90;99.90;;;;;;5024967;28;20041;-35
2022/07/03 07:42:52;;;;;;;1.40;0.80;;;19.90;99.90;;;;;;5025440;28;20533;-36
2022/07/03 07:45:18;;;;;;;2.00;0.82;;;19.90;99.90;;;;;;5025673;28;20519;-36
2022/07/03 07:47:44;;;;;;;1.23;0.60;;;20.00;99.90;;;;;;5025313;28;20060;-34
2022/07/03 07:50:10;;;;;;;0.80;0.60;;;20.00;99.90;;;;;;5025182;28;20030;-34
2022/07/03 07:52:35;;;;;;;2.88;0.68;;;20.10;99.90;;;;;;5025626;28;20040;-34
2022/07/03 07:55:01;;;;;;;3.53;0.70;;;20.00;99.90;;;;;;5024717;28;20124;-35
2022/07/03 07:57:35;;;;;;;1.05;0.63;;;20.10;99.90;;;;;;5025619;28;20037;-35
2022/07/03 08:00:05;;;;;;;1.15;0.50;;;20.10;99.90;;;;;;5025694;28;20029;-34
2022/07/03 08:08:10;;;;;;;1.20;0.80;;;20.30;99.90;;;;;;5025893;28;20131;-35
2022/07/03 08:10:45;;;;;;;0.77;0.68;;;20.30;99.90;;;;;;5024244;28;20033;-35
2022/07/03 08:13:12;;;;;;;1.67;0.70;;;20.30;99.90;;;;;;5025746;28;20033;-35
2022/07/03 08:15:39;;;;;;;2.20;0.70;;;20.30;99.90;;;;;;5024379;28;20082;-36
2022/07/03 08:18:05;;;;;;;1.95;0.75;;;20.40;99.90;;;;;;5026331;28;20029;-34
2022/07/03 08:20:31;;;;;;;1.75;0.77;;;20.40;99.90;;;;;;5024460;28;20061;-35
2022/07/03 08:23:01;;;;;;;1.17;0.50;;;20.40;99.90;;;;;;5024895;28;20528;-35
2022/07/03 08:25:27;;;;;;;1.23;0.60;;;20.40;99.90;;;;;;5024408;28;20540;-35
2022/07/03 08:27:53;;;;;;;1.63;0.77;;;20.50;99.90;;;;;;5025793;28;20470;-36
2022/07/03 08:30:19;;;;;;;1.77;0.70;;;20.50;99.90;;;;;;5024174;28;20071;-35
2022/07/03 08:32:49;;;;;;;1.35;0.65;;;20.50;99.80;;;;;;5024858;28;20108;-35
2022/07/03 08:35:16;;;;;;;1.67;0.60;;;20.60;99.80;;;;;;5025286;28;20116;-34
2022/07/03 08:37:43;;;;;;;1.15;0.68;;;20.60;99.80;;;;;;5024250;28;20479;-34
2022/07/03 08:40:10;;;;;;;4.85;1.60;;;20.70;99.80;;;;;;5025141;28;20029;-34
2022/07/03 08:42:38;;;;;;;2.75;0.80;;;20.70;99.70;;;;;;5019984;28;20032;-36
2022/07/03 08:45:06;;;;;;;1.70;0.73;;;20.70;99.70;;;;;;5024022;28;20030;-34
2022/07/03 08:47:33;;;;;;;2.47;0.75;;;20.70;99.70;;;;;;5024507;28;20485;-35
2022/07/03 08:50:01;;;;;;;1.13;0.60;;;20.70;99.70;;;;;;5025262;28;20030;-34
2022/07/03 08:52:29;;;;;;;1.33;0.60;;;20.80;99.70;;;;;;5023979;28;20029;-35
2022/07/03 08:54:57;;;;;;;1.30;0.82;;;20.80;99.70;;;;;;5025367;28;20033;-36
2022/07/03 08:57:24;;;;;;;1.83;0.93;;;20.90;99.60;;;;;;5013928;28;20386;-35
2022/07/03 08:59:52;;;;;;;1.35;0.80;;;21.00;99.60;;;;;;5022414;28;20030;-34
2022/07/03 09:02:18;;;;;;;1.08;0.60;;;21.10;99.40;;;;;;5016386;28;20042;-35
2022/07/03 09:04:45;;;;;;;1.25;0.50;;;21.20;99.20;;;;;;5019839;28;20453;-35
2022/07/03 09:07:12;;;;;;;1.23;0.70;;;21.30;98.80;;;;;;5019260;28;20037;-36
2022/07/03 09:09:39;;;;;;;0.55;0.50;;;21.40;98.70;;;;;;5018891;28;20030;-35
2022/07/03 09:12:05;;;;;;;0.43;0.40;;;21.40;98.50;;;;;;5019116;28;20505;-34
2022/07/03 09:14:31;;;;;;;0.55;0.45;;;21.50;98.40;;;;;;5013288;28;20074;-33
2022/07/03 09:16:56;;;;;;;0.60;0.50;;;21.60;98.10;;;;;;5006912;28;20101;-35
2022/07/03 09:19:43;;;;;;;1.00;0.70;;;21.60;98.00;;;;;;5015442;28;20377;-35
2022/07/03 09:22:18;;;;;;;1.00;0.70;;;21.70;97.80;;;;;;5006059;28;20048;-34
2022/07/03 09:24:44;;;;;;;1.15;0.60;;;21.80;97.70;;;;;;5014450;28;20030;-35
2022/07/03 09:27:17;;;;;;;2.58;1.17;;;21.90;97.60;;;;;;5006104;28;20025;-35
2022/07/03 09:29:51;;;;;;;0.57;0.52;;;22.00;97.60;;;;;;5015609;28;20477;-34
2022/07/03 09:32:17;;;;;;;1.42;0.75;;;22.10;97.60;;;;;;5018316;28;20053;-34
2022/07/03 09:34:43;;;;;;;0.60;0.60;;;22.20;97.40;;;;;;5023442;28;20049;-34
2022/07/03 09:37:09;;;;;;;1.02;0.70;;;22.30;97.30;;;;;;5024503;28;20057;-37
2022/07/03 09:39:36;;;;;;;1.15;0.70;;;22.30;97.20;;;;;;5025139;28;20083;-34
2022/07/03 09:42:07;;;;;;;0.95;0.70;;;22.30;97.20;;;;;;5024821;28;20045;-35
2022/07/03 09:44:37;;;;;;;2.10;0.80;;;22.20;97.20;;;;;;5024588;28;20437;-37
2022/07/03 09:47:27;;;;;;;2.25;0.70;;;22.10;97.20;;;;;;5024665;28;20100;-36
2022/07/03 09:49:57;;;;;;;1.15;0.60;;;22.10;97.40;;;;;;5004166;28;20034;-37
2022/07/03 09:52:30;;;;;;;2.08;0.80;;;22.00;97.60;;;;;;5025858;28;20035;-34
2022/07/03 09:54:58;;;;;;;1.50;0.75;;;21.90;97.60;;;;;;5017875;28;20527;-35
2022/07/03 09:57:26;;;;;;;1.35;0.60;;;21.90;97.50;;;;;;5024669;28;20032;-35
2022/07/03 10:00:14;;;;;;;1.63;0.60;;;21.90;97.50;;;;;;5012339;28;20025;-35
2022/07/03 10:02:55;;;;;;;1.02;0.65;;;21.90;97.60;;;;;;5005068;28;20156;-34
2022/07/03 10:05:40;;;;;;;2.00;0.80;;;21.90;97.60;;;;;;5018684;28;20478;-34
2022/07/03 10:08:11;;;;;;;1.95;0.55;;;22.00;97.60;;;;;;5008860;28;20026;-35
2022/07/03 10:10:42;;;;;;;1.05;0.50;;;22.00;97.60;;;;;;5028042;28;20052;-34
2022/07/03 10:13:08;;;;;;;1.00;0.63;;;22.10;97.60;;;;;;5028047;28;20551;-33
2022/07/03 10:15:37;;;;;;;1.05;0.60;;;22.20;97.50;;;;;;5026599;28;20029;-35
2022/07/03 10:18:05;;;;;;;0.85;0.52;;;22.20;97.50;;;;;;5028855;28;20091;-35
2022/07/03 10:20:43;;;;;;;1.25;0.63;;;22.30;97.60;;;;;;5027714;28;20643;-35
2022/07/03 10:23:10;;;;;;;1.48;0.70;;;22.30;97.40;;;;;;5027592;28;20061;-35
2022/07/03 10:25:40;;;;;;;1.33;0.60;;;22.30;97.30;;;;;;5027214;28;20180;-36
2022/07/03 10:28:06;;;;;;;0.90;0.60;;;22.30;97.20;;;;;;5028512;28;20061;-35
2022/07/03 10:30:34;;;;;;;0.80;0.60;;;22.20;97.20;;;;;;5026793;28;20026;-34
2022/07/03 10:32:59;;;;;;;2.05;0.60;;;22.30;97.20;;;;;;5029059;28;20032;-35
2022/07/03 10:35:32;;;;;;;1.90;1.05;;;22.40;97.10;;;;;;5027331;28;20037;-35
2022/07/03 10:38:24;;;;;;;1.10;0.70;;;22.60;97.10;;;;;;5027489;28;20030;-33
2022/07/03 10:46:36;;;;;;;1.25;0.60;;;22.40;97.10;;;;;;5027122;28;20048;-35
2022/07/03 10:49:05;;;;;;;0.93;0.50;;;22.30;97.10;;;;;;5027989;28;20030;-34
2022/07/03 10:51:44;;;;;;;2.42;0.68;;;22.30;97.20;;;;;;5026528;28;20155;-34
2022/07/03 10:54:17;;;;;;;2.35;0.73;;;22.20;97.00;;;;;;5028576;28;20065;-36
2022/07/03 10:56:58;;;;;;;0.70;0.55;;;22.20;97.00;;;;;;5027658;28;20626;-36
2022/07/03 10:59:36;;;;;;;1.25;0.68;;;22.30;97.00;;;;;;5026925;28;20075;-35
2022/07/03 11:02:39;;;;;;;0.93;0.43;;;22.30;96.90;;;;;;5027890;28;20046;-34
2022/07/03 11:05:25;;;;;;;1.60;0.52;;;22.40;96.60;;;;;;5027833;28;20152;-34
2022/07/03 11:07:52;;;;;;;1.00;0.60;;;22.50;96.50;;;;;;5026130;28;20021;-35
2022/07/03 11:10:17;;;;;;;0.93;0.63;;;22.60;96.20;;;;;;5027459;28;20034;-36
2022/07/03 11:13:07;;;;;;;2.22;0.77;;;22.60;95.90;;;;;;5027042;28;20380;-35
2022/07/03 11:15:51;;;;;;;1.45;0.50;;;22.70;95.80;;;;;;5027092;28;20044;-36
2022/07/03 11:18:28;;;;;;;1.02;0.50;;;22.70;95.60;;;;;;5026733;28;20026;-36
2022/07/03 11:20:54;;;;;;;2.95;0.65;;;22.80;95.60;;;;;;5027505;28;20053;-34
2022/07/03 11:23:33;;;;;;;1.45;0.63;;;22.90;95.10;;;;;;5027928;28;20088;-35
2022/07/03 11:26:20;;;;;;;0.68;0.50;;;22.90;95.00;;;;;;5026826;28;20435;-36
2022/07/03 11:28:46;;;;;;;0.85;0.50;;;23.00;95.10;;;;;;5007236;28;20033;-35
2022/07/03 11:31:14;;;;;;;0.68;0.50;;;22.90;95.10;;;;;;5010962;28;20025;-35
2022/07/03 11:33:56;;;;;;;0.68;0.45;;;22.90;95.20;;;;;;5026297;28;20059;-35
2022/07/03 11:36:25;;;;;;;2.17;0.60;;;22.90;95.30;;;;;;5026376;28;20043;-34
2022/07/03 11:38:59;;;;;;;0.90;0.60;;;22.90;95.20;;;;;;5026084;28;20311;-34
2022/07/03 11:41:30;;;;;;;1.05;0.40;;;23.00;95.20;;;;;;5025526;28;20045;-34
2022/07/03 11:43:58;;;;;;;1.02;0.57;;;23.00;95.10;;;;;;5027664;28;20100;-34
2022/07/03 11:46:28;;;;;;;2.17;0.50;;;23.00;94.70;;;;;;5025951;28;20034;-35
2022/07/03 11:49:08;;;;;;;0.50;0.32;;;23.10;94.30;;;;;;5025947;28;20527;-37
2022/07/03 11:51:35;;;;;;;0.57;0.43;;;23.10;94.30;;;;;;5026300;28;20100;-35
2022/07/03 11:54:01;;;;;;;0.40;0.40;;;23.10;94.00;;;;;;5025219;28;20101;-34
2022/07/03 11:56:27;;;;;;;0.68;0.40;;;23.20;93.90;;;;;;5026502;28;20124;-34
2022/07/03 11:58:56;;;;;;;0.95;0.40;;;23.30;93.80;;;;;;5023371;28;20088;-34
2022/07/03 12:01:24;;;;;;;1.38;0.50;;;23.30;93.70;;;;;;5005528;28;20050;-36
2022/07/03 12:04:14;;;;;;;0.52;0.32;;;23.30;93.40;;;;;;5022887;28;20469;-36
2022/07/03 12:06:53;;;;;;;0.90;0.50;;;23.40;93.30;;;;;;5003626;28;20045;-35
2022/07/03 12:09:28;;;;;;;0.52;0.40;;;23.40;93.10;;;;;;5024264;28;20056;-35
2022/07/03 12:11:59;;;;;;;1.10;0.50;;;23.40;93.10;;;;;;5026564;28;20553;-35
2022/07/03 12:14:51;;;;;;;1.33;0.60;;;23.40;92.90;;;;;;5024764;28;20021;-34
2022/07/03 12:17:19;;;;;;;1.35;0.70;;;23.40;92.60;;;;;;5026406;28;20037;-35
2022/07/03 12:19:50;;;;;;;0.65;0.63;;;23.50;92.20;;;;;;5025553;28;20080;-35
2022/07/03 12:22:29;;;;;;;1.23;0.40;;;23.50;92.10;;;;;;5025166;28;20033;-35
2022/07/03 12:25:12;;;;;;;2.03;1.02;;;23.50;92.50;;;;;;5026465;28;20025;-34
2022/07/03 12:27:43;;;;;;;0.98;0.40;;;23.60;92.20;;;;;;5025579;28;20017;-34
2022/07/03 12:30:19;;;;;;;1.30;0.47;;;23.70;91.80;;;;;;5024354;28;20037;-35
2022/07/03 12:32:46;;;;;;;0.43;0.40;;;23.70;91.80;;;;;;5025886;28;20029;-36
2022/07/03 12:35:11;;;;;;;1.10;0.60;;;23.70;91.90;;;;;;5026193;28;20032;-35
2022/07/03 12:37:44;;;;;;;0.35;0.32;;;23.70;91.80;;;;;;5024539;28;20021;-33
2022/07/03 12:40:11;;;;;;;1.45;0.60;;;23.70;91.90;;;;;;5026332;28;20030;-35
2022/07/03 12:42:45;;;;;;;1.17;0.40;;;23.70;92.00;;;;;;5025635;28;20503;-36
2022/07/03 12:45:12;;;;;;;1.13;0.50;;;23.80;92.10;;;;;;5023435;28;20029;-35
2022/07/03 12:47:38;;;;;;;2.08;0.68;;;23.80;91.90;;;;;;5027111;28;20018;-36
2022/07/03 12:50:05;;;;;;;1.10;0.52;;;23.80;91.90;;;;;;5015367;28;20386;-35
2022/07/03 12:52:32;;;;;;;0.88;0.60;;;23.80;91.70;;;;;;5005994;28;20021;-35
2022/07/03 12:54:59;;;;;;;0.98;0.50;;;23.80;91.60;;;;;;5013051;28;20041;-35
2022/07/03 13:00:17;;;;;;;0.85;0.43;;;23.90;91.50;;;;;;5013575;28;20502;-36
2022/07/03 13:02:48;;;;;;;0.77;0.55;;;23.90;91.10;;;;;;5009891;28;20042;-38
2022/07/03 13:05:15;;;;;;;0.60;0.30;;;23.90;91.30;;;;;;5011666;28;20572;-34
2022/07/03 13:07:42;;;;;;;0.65;0.40;;;24.00;91.40;;;;;;5009627;28;20032;-35
2022/07/03 13:10:08;;;;;;;0.88;0.50;;;24.20;91.30;;;;;;5009127;28;20076;-35
2022/07/03 13:12:34;;;;;;;1.73;0.50;;;24.30;91.00;;;;;;5012334;28;20529;-35
2022/07/03 13:15:01;;;;;;;0.60;0.40;;;24.50;90.80;;;;;;5006971;28;20104;-36
2022/07/03 13:17:54;;;;;;;1.70;0.70;;;24.60;90.70;;;;;;5021442;28;20025;-37
2022/07/03 13:20:27;;;;;;;0.98;0.50;;;24.50;89.60;;;;;;5021157;28;20033;-36